sensor_id;sensor_type;location;lat;lon;timestamp;pressure;altitude;pressure_sealevel;temperature;humidity
39265;BME280;42646;51.910;7.724;2022-09-03T00:01:30;100734.78;;;17.02;48.13
39265;BME280;42646;51.910;7.724;2022-09-03T00:04:02;100730.94;;;16.96;48.40
39265;BME280;42646;51.910;7.724;2022-09-03T00:06:37;100736.03;;;16.91;48.36
39265;BME280;42646;51.910;7.724;2022-09-03T00:09:12;100737.19;;;16.89;48.89
39265;BME280;42646;51.910;7.724;2022-09-03T00:11:47;100732.53;;;16.82;48.84
39265;BME280;42646;51.910;7.724;2022-09-03T00:14:20;100734.91;;;16.77;48.87
39265;BME280;42646;51.910;7.724;2022-09-03T00:16:53;100727.22;;;16.74;48.88
39265;BME280;42646;51.910;7.724;2022-09-03T00:19:25;100730.25;;;16.71;48.85
39265;BME280;42646;51.910;7.724;2022-09-03T00:21:56;100721.88;;;16.66;49.00
39265;BME280;42646;51.910;7.724;2022-09-03T00:24:28;100725.22;;;16.60;49.20
39265;BME280;42646;51.910;7.724;2022-09-03T00:27:00;100728.28;;;16.57;49.36
39265;BME280;42646;51.910;7.724;2022-09-03T00:29:34;100736.84;;;16.52;49.55
39265;BME280;42646;51.910;7.724;2022-09-03T00:32:08;100725.66;;;16.49;49.74
39265;BME280;42646;51.910;7.724;2022-09-03T00:34:39;100725.31;;;16.44;49.94
39265;BME280;42646;51.910;7.724;2022-09-03T00:37:09;100722.97;;;16.41;50.09
39265;BME280;42646;51.910;7.724;2022-09-03T00:39:41;100724.50;;;16.35;50.00
39265;BME280;42646;51.910;7.724;2022-09-03T00:42:21;100717.00;;;16.31;49.97
39265;BME280;42646;51.910;7.724;2022-09-03T00:45:10;100729.09;;;16.26;50.21
39265;BME280;42646;51.910;7.724;2022-09-03T00:47:51;100734.97;;;16.22;50.25
39265;BME280;42646;51.910;7.724;2022-09-03T00:50:31;100735.66;;;16.16;50.50
39265;BME280;42646;51.910;7.724;2022-09-03T00:53:07;100726.44;;;16.10;50.74
39265;BME280;42646;51.910;7.724;2022-09-03T00:55:43;100727.13;;;16.04;50.93
39265;BME280;42646;51.910;7.724;2022-09-03T00:58:24;100729.50;;;15.99;51.27
39265;BME280;42646;51.910;7.724;2022-09-03T01:00:58;100727.50;;;15.93;51.38
39265;BME280;42646;51.910;7.724;2022-09-03T01:03:31;100725.50;;;15.87;51.80
39265;BME280;42646;51.910;7.724;2022-09-03T01:06:16;100730.72;;;15.80;52.03
39265;BME280;42646;51.910;7.724;2022-09-03T01:08:56;100722.34;;;15.75;52.18
39265;BME280;42646;51.910;7.724;2022-09-03T01:11:35;100729.22;;;15.69;52.21
39265;BME280;42646;51.910;7.724;2022-09-03T01:14:12;100729.91;;;15.63;52.62
39265;BME280;42646;51.910;7.724;2022-09-03T01:16:48;100728.88;;;15.56;52.66
39265;BME280;42646;51.910;7.724;2022-09-03T01:19:34;100724.00;;;15.52;53.24
39265;BME280;42646;51.910;7.724;2022-09-03T01:22:26;100725.69;;;15.44;53.21
39265;BME280;42646;51.910;7.724;2022-09-03T01:25:14;100732.56;;;15.39;53.56
39265;BME280;42646;51.910;7.724;2022-09-03T01:28:00;100719.84;;;15.33;53.41
39265;BME280;42646;51.910;7.724;2022-09-03T01:30:30;100730.22;;;15.28;53.76
39265;BME280;42646;51.910;7.724;2022-09-03T01:33:03;100723.50;;;15.23;54.14
39265;BME280;42646;51.910;7.724;2022-09-03T01:35:38;100733.06;;;15.18;54.49
39265;BME280;42646;51.910;7.724;2022-09-03T01:38:19;100734.56;;;15.12;54.20
39265;BME280;42646;51.910;7.724;2022-09-03T01:40:55;100730.72;;;15.07;54.60
39265;BME280;42646;51.910;7.724;2022-09-03T01:43:54;100740.38;;;15.00;54.76
39265;BME280;42646;51.910;7.724;2022-09-03T01:46:25;100739.06;;;14.95;55.50
39265;BME280;42646;51.910;7.724;2022-09-03T01:49:05;100731.53;;;14.91;55.35
39265;BME280;42646;51.910;7.724;2022-09-03T01:51:37;100733.00;;;14.85;55.63
39265;BME280;42646;51.910;7.724;2022-09-03T01:57:23;100721.47;;;14.77;56.13
39265;BME280;42646;51.910;7.724;2022-09-03T02:00:06;100719.25;;;14.72;56.03
39265;BME280;42646;51.910;7.724;2022-09-03T02:02:39;100725.75;;;14.69;56.12
39265;BME280;42646;51.910;7.724;2022-09-03T02:05:09;100720.59;;;14.68;56.52
39265;BME280;42646;51.910;7.724;2022-09-03T02:07:41;100720.91;;;14.65;56.75
39265;BME280;42646;51.910;7.724;2022-09-03T02:10:11;100723.75;;;14.63;56.64
39265;BME280;42646;51.910;7.724;2022-09-03T02:12:40;100725.59;;;14.63;56.87
39265;BME280;42646;51.910;7.724;2022-09-03T02:15:13;100725.09;;;14.59;57.14
39265;BME280;42646;51.910;7.724;2022-09-03T02:17:43;100726.22;;;14.57;57.09
39265;BME280;42646;51.910;7.724;2022-09-03T02:20:15;100722.22;;;14.53;57.38
39265;BME280;42646;51.910;7.724;2022-09-03T02:22:46;100725.22;;;14.50;57.25
39265;BME280;42646;51.910;7.724;2022-09-03T02:25:14;100720.03;;;14.48;57.50
39265;BME280;42646;51.910;7.724;2022-09-03T02:27:42;100718.34;;;14.47;57.56
39265;BME280;42646;51.910;7.724;2022-09-03T02:30:12;100717.63;;;14.45;57.76
39265;BME280;42646;51.910;7.724;2022-09-03T02:32:40;100718.97;;;14.41;57.68
39265;BME280;42646;51.910;7.724;2022-09-03T02:35:08;100718.97;;;14.41;57.88
39265;BME280;42646;51.910;7.724;2022-09-03T02:37:38;100713.94;;;14.38;57.94
39265;BME280;42646;51.910;7.724;2022-09-03T02:40:07;100720.28;;;14.37;58.11
39265;BME280;42646;51.910;7.724;2022-09-03T02:42:36;100720.28;;;14.37;58.00
39265;BME280;42646;51.910;7.724;2022-09-03T02:45:10;100713.41;;;14.34;58.36
39265;BME280;42646;51.910;7.724;2022-09-03T02:47:44;100722.59;;;14.32;58.44
39265;BME280;42646;51.910;7.724;2022-09-03T02:50:15;100713.06;;;14.29;58.55
39265;BME280;42646;51.910;7.724;2022-09-03T02:52:42;100717.91;;;14.26;58.76
39265;BME280;42646;51.910;7.724;2022-09-03T02:55:10;100718.06;;;14.24;58.66
39265;BME280;42646;51.910;7.724;2022-09-03T02:57:38;100722.59;;;14.24;58.72
39265;BME280;42646;51.910;7.724;2022-09-03T03:00:07;100719.38;;;14.20;58.73
39265;BME280;42646;51.910;7.724;2022-09-03T03:02:35;100724.72;;;14.20;58.95
39265;BME280;42646;51.910;7.724;2022-09-03T03:05:05;100721.22;;;14.20;59.05
39265;BME280;42646;51.910;7.724;2022-09-03T03:07:36;100715.19;;;14.18;59.02
39265;BME280;42646;51.910;7.724;2022-09-03T03:10:05;100712.66;;;14.16;58.96
39265;BME280;42646;51.910;7.724;2022-09-03T03:12:32;100706.63;;;14.14;59.00
39265;BME280;42646;51.910;7.724;2022-09-03T03:15:00;100711.16;;;14.13;59.03
39265;BME280;42646;51.910;7.724;2022-09-03T03:17:28;100704.13;;;14.12;59.15
39265;BME280;42646;51.910;7.724;2022-09-03T03:19:57;100706.28;;;14.09;59.27
39265;BME280;42646;51.910;7.724;2022-09-03T03:22:26;100712.47;;;14.09;59.40
39265;BME280;42646;51.910;7.724;2022-09-03T03:24:53;100702.94;;;14.07;59.56
39265;BME280;42646;51.910;7.724;2022-09-03T03:27:23;100698.59;;;14.06;59.26
39265;BME280;42646;51.910;7.724;2022-09-03T03:29:51;100697.88;;;14.04;59.58
39265;BME280;42646;51.910;7.724;2022-09-03T03:32:20;100704.06;;;14.04;59.51
39265;BME280;42646;51.910;7.724;2022-09-03T03:34:47;100698.22;;;14.01;59.85
39265;BME280;42646;51.910;7.724;2022-09-03T03:37:15;100695.69;;;13.99;59.73
39265;BME280;42646;51.910;7.724;2022-09-03T03:39:44;100700.38;;;13.97;60.00
39265;BME280;42646;51.910;7.724;2022-09-03T03:42:12;100702.38;;;13.95;60.07
39265;BME280;42646;51.910;7.724;2022-09-03T03:44:39;100700.00;;;13.92;60.10
39265;BME280;42646;51.910;7.724;2022-09-03T03:47:09;100701.16;;;13.89;60.26
39265;BME280;42646;51.910;7.724;2022-09-03T03:49:37;100704.84;;;13.88;60.01
39265;BME280;42646;51.910;7.724;2022-09-03T03:52:05;100711.31;;;13.86;60.14
39265;BME280;42646;51.910;7.724;2022-09-03T03:54:33;100700.13;;;13.82;60.46
39265;BME280;42646;51.910;7.724;2022-09-03T03:57:02;100695.25;;;13.78;60.38
39265;BME280;42646;51.910;7.724;2022-09-03T03:59:29;100696.25;;;13.77;60.66
39265;BME280;42646;51.910;7.724;2022-09-03T04:01:57;100696.38;;;13.75;60.88
39265;BME280;42646;51.910;7.724;2022-09-03T04:04:25;100697.25;;;13.76;61.16
39265;BME280;42646;51.910;7.724;2022-09-03T04:06:52;100689.84;;;13.70;61.39
39265;BME280;42646;51.910;7.724;2022-09-03T04:09:20;100689.00;;;13.69;61.22
39265;BME280;42646;51.910;7.724;2022-09-03T04:11:47;100698.00;;;13.68;61.26
39265;BME280;42646;51.910;7.724;2022-09-03T04:14:17;100694.50;;;13.68;61.31
39265;BME280;42646;51.910;7.724;2022-09-03T04:16:45;100696.50;;;13.66;61.23
39265;BME280;42646;51.910;7.724;2022-09-03T04:19:13;100683.31;;;13.64;61.21
39265;BME280;42646;51.910;7.724;2022-09-03T04:21:40;100685.97;;;13.64;61.37
39265;BME280;42646;51.910;7.724;2022-09-03T04:24:08;100697.81;;;13.61;61.69
39265;BME280;42646;51.910;7.724;2022-09-03T04:26:36;100694.31;;;13.61;61.68
39265;BME280;42646;51.910;7.724;2022-09-03T04:29:05;100690.13;;;13.58;61.66
39265;BME280;42646;51.910;7.724;2022-09-03T04:31:36;100689.28;;;13.58;61.81
39265;BME280;42646;51.910;7.724;2022-09-03T04:34:05;100682.22;;;13.57;61.98
39265;BME280;42646;51.910;7.724;2022-09-03T04:36:33;100678.72;;;13.56;61.94
39265;BME280;42646;51.910;7.724;2022-09-03T04:39:01;100681.56;;;13.55;62.24
39265;BME280;42646;51.910;7.724;2022-09-03T04:41:30;100682.41;;;13.55;62.15
39265;BME280;42646;51.910;7.724;2022-09-03T04:43:58;100678.22;;;13.53;62.07
39265;BME280;42646;51.910;7.724;2022-09-03T04:46:27;100676.88;;;13.57;62.47
39265;BME280;42646;51.910;7.724;2022-09-03T04:49:01;100681.88;;;13.52;62.48
39265;BME280;42646;51.910;7.724;2022-09-03T04:51:29;100676.50;;;13.52;62.73
39265;BME280;42646;51.910;7.724;2022-09-03T04:53:58;100676.50;;;13.52;62.73
39265;BME280;42646;51.910;7.724;2022-09-03T04:56:28;100677.38;;;13.52;62.75
39265;BME280;42646;51.910;7.724;2022-09-03T04:58:58;100680.91;;;13.53;62.77
39265;BME280;42646;51.910;7.724;2022-09-03T05:01:28;100682.56;;;13.54;62.64
39265;BME280;42646;51.910;7.724;2022-09-03T05:03:57;100680.91;;;13.53;62.74
39265;BME280;42646;51.910;7.724;2022-09-03T05:06:27;100672.72;;;13.54;62.63
39265;BME280;42646;51.910;7.724;2022-09-03T05:08:55;100677.88;;;13.56;62.61
39265;BME280;42646;51.910;7.724;2022-09-03T05:11:24;100676.88;;;13.57;62.52
39265;BME280;42646;51.910;7.724;2022-09-03T05:13:53;100672.38;;;13.57;62.84
39265;BME280;42646;51.910;7.724;2022-09-03T05:16:22;100676.25;;;13.63;62.78
39265;BME280;42646;51.910;7.724;2022-09-03T05:18:51;100674.91;;;13.59;62.77
39265;BME280;42646;51.910;7.724;2022-09-03T05:21:19;100676.41;;;13.61;63.09
39265;BME280;42646;51.910;7.724;2022-09-03T05:23:49;100683.44;;;13.62;62.97
39265;BME280;42646;51.910;7.724;2022-09-03T05:26:19;100682.31;;;13.65;63.14
39265;BME280;42646;51.910;7.724;2022-09-03T05:28:47;100681.31;;;13.66;63.04
39265;BME280;42646;51.910;7.724;2022-09-03T05:31:16;100682.81;;;13.69;63.30
39265;BME280;42646;51.910;7.724;2022-09-03T05:33:46;100678.31;;;13.69;63.31
39265;BME280;42646;51.910;7.724;2022-09-03T05:36:16;100682.69;;;13.70;63.36
39265;BME280;42646;51.910;7.724;2022-09-03T05:38:45;100673.50;;;13.73;63.38
39265;BME280;42646;51.910;7.724;2022-09-03T05:41:16;100675.00;;;13.75;63.61
39265;BME280;42646;51.910;7.724;2022-09-03T05:43:46;100677.38;;;13.78;63.48
39265;BME280;42646;51.910;7.724;2022-09-03T05:46:17;100674.22;;;13.83;63.38
39265;BME280;42646;51.910;7.724;2022-09-03T05:48:45;100676.91;;;13.83;63.61
39265;BME280;42646;51.910;7.724;2022-09-03T05:51:14;100672.25;;;13.93;63.68
39265;BME280;42646;51.910;7.724;2022-09-03T05:53:44;100670.75;;;13.90;63.69
39265;BME280;42646;51.910;7.724;2022-09-03T05:56:15;100675.94;;;13.92;63.84
39265;BME280;42646;51.910;7.724;2022-09-03T05:58:45;100684.16;;;13.99;63.61
39265;BME280;42646;51.910;7.724;2022-09-03T06:01:15;100672.13;;;14.03;63.57
39265;BME280;42646;51.910;7.724;2022-09-03T06:03:43;100673.50;;;14.07;63.59
39265;BME280;42646;51.910;7.724;2022-09-03T06:06:12;100684.06;;;14.16;63.47
39265;BME280;42646;51.910;7.724;2022-09-03T06:08:40;100678.22;;;14.21;63.18
39265;BME280;42646;51.910;7.724;2022-09-03T06:11:10;100681.09;;;14.28;63.22
39265;BME280;42646;51.910;7.724;2022-09-03T06:13:39;100682.16;;;14.35;62.96
39265;BME280;42646;51.910;7.724;2022-09-03T06:16:08;100678.13;;;14.39;62.96
39265;BME280;42646;51.910;7.724;2022-09-03T06:18:36;100674.69;;;14.55;62.23
39265;BME280;42646;51.910;7.724;2022-09-03T06:21:06;100671.00;;;14.56;62.17
39265;BME280;42646;51.910;7.724;2022-09-03T06:23:34;100678.56;;;14.68;62.00
39265;BME280;42646;51.910;7.724;2022-09-03T06:26:07;100673.75;;;14.80;61.74
39265;BME280;42646;51.910;7.724;2022-09-03T06:28:37;100676.94;;;14.92;61.71
39265;BME280;42646;51.910;7.724;2022-09-03T06:31:08;100668.41;;;15.05;62.07
39265;BME280;42646;51.910;7.724;2022-09-03T06:33:37;100681.81;;;15.21;61.35
39265;BME280;42646;51.910;7.724;2022-09-03T06:36:06;100670.06;;;15.38;61.05
39265;BME280;42646;51.910;7.724;2022-09-03T06:38:36;100676.25;;;15.55;60.67
39265;BME280;42646;51.910;7.724;2022-09-03T06:41:06;100675.94;;;15.66;60.57
39265;BME280;42646;51.910;7.724;2022-09-03T06:43:36;100673.56;;;15.80;60.25
39265;BME280;42646;51.910;7.724;2022-09-03T06:46:07;100673.50;;;15.88;59.78
39265;BME280;42646;51.910;7.724;2022-09-03T06:48:37;100680.53;;;15.97;58.93
39265;BME280;42646;51.910;7.724;2022-09-03T06:51:07;100672.44;;;16.05;58.68
39265;BME280;42646;51.910;7.724;2022-09-03T06:53:36;100671.94;;;16.10;58.92
39265;BME280;42646;51.910;7.724;2022-09-03T06:56:06;100681.31;;;16.14;58.74
39265;BME280;42646;51.910;7.724;2022-09-03T06:58:36;100696.56;;;16.21;58.84
39265;BME280;42646;51.910;7.724;2022-09-03T07:01:09;100696.03;;;16.26;58.89
39265;BME280;42646;51.910;7.724;2022-09-03T07:03:39;100695.16;;;16.34;58.31
39265;BME280;42646;51.910;7.724;2022-09-03T07:06:09;100692.97;;;16.37;58.06
39265;BME280;42646;51.910;7.724;2022-09-03T07:08:37;100703.16;;;16.42;58.09
39265;BME280;42646;51.910;7.724;2022-09-03T07:11:06;100698.28;;;16.45;58.06
39265;BME280;42646;51.910;7.724;2022-09-03T07:13:36;100696.56;;;16.52;58.48
39265;BME280;42646;51.910;7.724;2022-09-03T07:16:08;100703.75;;;16.60;58.62
39265;BME280;42646;51.910;7.724;2022-09-03T07:18:37;100698.53;;;16.67;58.14
39265;BME280;42646;51.910;7.724;2022-09-03T07:21:08;100687.94;;;16.73;57.92
39265;BME280;42646;51.910;7.724;2022-09-03T07:23:37;100694.91;;;16.82;57.60
39265;BME280;42646;51.910;7.724;2022-09-03T07:26:09;100693.13;;;16.98;57.83
39265;BME280;42646;51.910;7.724;2022-09-03T07:28:39;100691.47;;;17.20;57.69
39265;BME280;42646;51.910;7.724;2022-09-03T07:31:11;100687.00;;;17.50;56.86
39265;BME280;42646;51.910;7.724;2022-09-03T07:33:39;100685.28;;;17.72;57.06
39265;BME280;42646;51.910;7.724;2022-09-03T07:36:09;100681.69;;;17.94;56.92
39265;BME280;42646;51.910;7.724;2022-09-03T07:38:37;100680.19;;;18.21;55.86
39265;BME280;42646;51.910;7.724;2022-09-03T07:41:07;100682.84;;;18.51;53.97
39265;BME280;42646;51.910;7.724;2022-09-03T07:43:36;100688.47;;;18.71;53.46
39265;BME280;42646;51.910;7.724;2022-09-03T07:46:06;100684.97;;;18.91;52.76
39265;BME280;42646;51.910;7.724;2022-09-03T07:48:35;100679.13;;;19.09;52.53
39265;BME280;42646;51.910;7.724;2022-09-03T07:51:03;100678.47;;;19.29;52.47
39265;BME280;42646;51.910;7.724;2022-09-03T07:53:31;100667.25;;;19.53;51.31
39265;BME280;42646;51.910;7.724;2022-09-03T07:56:03;100672.78;;;19.73;51.27
39265;BME280;42646;51.910;7.724;2022-09-03T07:58:32;100680.38;;;19.91;51.35
39265;BME280;42646;51.910;7.724;2022-09-03T08:01:03;100673.41;;;20.10;50.74
39265;BME280;42646;51.910;7.724;2022-09-03T08:03:31;100680.81;;;20.29;50.10
39265;BME280;42646;51.910;7.724;2022-09-03T08:06:04;100686.88;;;20.44;48.19
39265;BME280;42646;51.910;7.724;2022-09-03T08:08:33;100675.28;;;20.50;48.21
39265;BME280;42646;51.910;7.724;2022-09-03T08:11:06;100678.66;;;20.59;48.88
39265;BME280;42646;51.910;7.724;2022-09-03T08:13:37;100684.09;;;20.79;47.48
39265;BME280;42646;51.910;7.724;2022-09-03T08:16:06;100687.03;;;20.84;47.46
39265;BME280;42646;51.910;7.724;2022-09-03T08:18:35;100672.09;;;20.95;47.00
39265;BME280;42646;51.910;7.724;2022-09-03T08:21:07;100677.09;;;21.11;46.65
39265;BME280;42646;51.910;7.724;2022-09-03T08:23:36;100683.75;;;21.28;46.68
39265;BME280;42646;51.910;7.724;2022-09-03T08:26:04;100694.63;;;21.35;46.66
39265;BME280;42646;51.910;7.724;2022-09-03T08:28:33;100676.91;;;21.46;46.57
39265;BME280;42646;51.910;7.724;2022-09-03T08:31:04;100684.81;;;21.60;45.85
39265;BME280;42646;51.910;7.724;2022-09-03T08:33:32;100673.13;;;21.80;45.90
39265;BME280;42646;51.910;7.724;2022-09-03T08:36:10;100680.41;;;21.86;44.94
39265;BME280;42646;51.910;7.724;2022-09-03T08:38:39;100680.81;;;21.90;45.17
39265;BME280;42646;51.910;7.724;2022-09-03T08:41:13;100679.75;;;21.97;45.04
39265;BME280;42646;51.910;7.724;2022-09-03T08:43:55;100681.19;;;22.06;45.42
39265;BME280;42646;51.910;7.724;2022-09-03T08:46:35;100678.47;;;22.20;45.54
39265;BME280;42646;51.910;7.724;2022-09-03T08:49:10;100680.06;;;22.34;44.69
39265;BME280;42646;51.910;7.724;2022-09-03T08:51:41;100674.19;;;22.44;45.23
39265;BME280;42646;51.910;7.724;2022-09-03T08:54:11;100678.69;;;22.63;45.32
39265;BME280;42646;51.910;7.724;2022-09-03T08:56:41;100677.53;;;22.84;44.66
39265;BME280;42646;51.910;7.724;2022-09-03T08:59:09;100682.28;;;22.95;43.84
39265;BME280;42646;51.910;7.724;2022-09-03T09:01:46;100679.59;;;22.95;43.43
39265;BME280;42646;51.910;7.724;2022-09-03T09:04:31;100674.94;;;23.02;42.76
39265;BME280;42646;51.910;7.724;2022-09-03T09:07:10;100678.25;;;23.04;41.93
39265;BME280;42646;51.910;7.724;2022-09-03T09:09:45;100677.88;;;23.01;42.43
39265;BME280;42646;51.910;7.724;2022-09-03T09:12:27;100672.00;;;23.04;43.09
39265;BME280;42646;51.910;7.724;2022-09-03T09:15:10;100671.50;;;23.13;42.59
39265;BME280;42646;51.910;7.724;2022-09-03T09:17:50;100674.19;;;23.20;42.03
39265;BME280;42646;51.910;7.724;2022-09-03T09:20:26;100673.34;;;23.19;42.99
39265;BME280;42646;51.910;7.724;2022-09-03T09:23:02;100666.81;;;23.27;42.51
39265;BME280;42646;51.910;7.724;2022-09-03T09:25:32;100672.19;;;23.34;41.63
39265;BME280;42646;51.910;7.724;2022-09-03T09:28:12;100659.06;;;23.31;42.05
39265;BME280;42646;51.910;7.724;2022-09-03T09:30:44;100664.50;;;23.31;42.00
39265;BME280;42646;51.910;7.724;2022-09-03T09:33:13;100659.59;;;23.39;40.98
39265;BME280;42646;51.910;7.724;2022-09-03T09:35:42;100656.47;;;23.36;41.68
39265;BME280;42646;51.910;7.724;2022-09-03T09:38:11;100661.47;;;23.39;42.31
39265;BME280;42646;51.910;7.724;2022-09-03T09:40:43;100651.84;;;23.43;42.10
39265;BME280;42646;51.910;7.724;2022-09-03T09:43:12;100648.25;;;23.49;41.71
39265;BME280;42646;51.910;7.724;2022-09-03T09:45:43;100650.25;;;23.54;41.99
39265;BME280;42646;51.910;7.724;2022-09-03T09:48:22;100659.59;;;23.64;42.10
39265;BME280;42646;51.910;7.724;2022-09-03T09:51:03;100644.91;;;23.72;43.13
39265;BME280;42646;51.910;7.724;2022-09-03T09:53:32;100647.56;;;23.79;42.93
39265;BME280;42646;51.910;7.724;2022-09-03T09:56:01;100645.94;;;23.89;41.81
39265;BME280;42646;51.910;7.724;2022-09-03T09:58:30;100644.09;;;23.90;42.19
39265;BME280;42646;51.910;7.724;2022-09-03T10:01:03;100642.78;;;23.92;41.38
39265;BME280;42646;51.910;7.724;2022-09-03T10:03:40;100636.28;;;23.93;41.81
39265;BME280;42646;51.910;7.724;2022-09-03T10:06:15;100651.34;;;23.96;42.28
39265;BME280;42646;51.910;7.724;2022-09-03T10:09:10;100649.97;;;24.05;41.26
39265;BME280;42646;51.910;7.724;2022-09-03T10:11:42;100645.50;;;24.11;40.71
39265;BME280;42646;51.910;7.724;2022-09-03T10:14:17;100645.75;;;24.09;41.51
39265;BME280;42646;51.910;7.724;2022-09-03T10:16:49;100636.53;;;24.10;40.65
39265;BME280;42646;51.910;7.724;2022-09-03T10:19:27;100624.72;;;24.16;40.90
39265;BME280;42646;51.910;7.724;2022-09-03T10:22:03;100637.75;;;24.14;40.21
39265;BME280;42646;51.910;7.724;2022-09-03T10:24:41;100629.50;;;24.21;39.89
39265;BME280;42646;51.910;7.724;2022-09-03T10:27:15;100623.09;;;24.15;40.29
39265;BME280;42646;51.910;7.724;2022-09-03T10:29:44;100633.38;;;24.13;39.48
39265;BME280;42646;51.910;7.724;2022-09-03T10:32:21;100627.78;;;24.08;40.78
39265;BME280;42646;51.910;7.724;2022-09-03T10:35:05;100629.44;;;24.09;40.73
39265;BME280;42646;51.910;7.724;2022-09-03T10:37:42;100640.44;;;24.14;41.02
39265;BME280;42646;51.910;7.724;2022-09-03T10:40:18;100630.09;;;24.23;41.50
39265;BME280;42646;51.910;7.724;2022-09-03T10:43:15;100625.72;;;24.40;41.09
39265;BME280;42646;51.910;7.724;2022-09-03T10:45:51;100626.78;;;24.39;39.88
39265;BME280;42646;51.910;7.724;2022-09-03T10:48:40;100632.66;;;24.36;39.79
39265;BME280;42646;51.910;7.724;2022-09-03T10:51:17;100622.59;;;24.37;39.54
39265;BME280;42646;51.910;7.724;2022-09-03T10:54:04;100617.84;;;24.32;40.28
39265;BME280;42646;51.910;7.724;2022-09-03T10:56:41;100625.72;;;24.40;40.22
39265;BME280;42646;51.910;7.724;2022-09-03T10:59:24;100623.66;;;24.36;40.24
39265;BME280;42646;51.910;7.724;2022-09-03T11:02:09;100624.28;;;24.38;40.46
39265;BME280;42646;51.910;7.724;2022-09-03T11:04:45;100619.94;;;24.48;40.08
39265;BME280;42646;51.910;7.724;2022-09-03T11:07:20;100619.25;;;24.53;40.10
39265;BME280;42646;51.910;7.724;2022-09-03T11:09:54;100623.72;;;24.47;40.10
39265;BME280;42646;51.910;7.724;2022-09-03T11:12:29;100619.94;;;24.48;39.41
39265;BME280;42646;51.910;7.724;2022-09-03T11:15:00;100620.16;;;24.47;39.13
39265;BME280;42646;51.910;7.724;2022-09-03T11:17:35;100616.25;;;24.43;39.22
39265;BME280;42646;51.910;7.724;2022-09-03T11:20:10;100622.16;;;24.40;39.82
39265;BME280;42646;51.910;7.724;2022-09-03T11:22:42;100615.41;;;24.42;40.11
39265;BME280;42646;51.910;7.724;2022-09-03T11:25:13;100610.59;;;24.44;40.10
39265;BME280;42646;51.910;7.724;2022-09-03T11:27:52;100613.22;;;24.51;40.11
39265;BME280;42646;51.910;7.724;2022-09-03T11:30:23;100614.63;;;24.54;40.32
39265;BME280;42646;51.910;7.724;2022-09-03T11:32:55;100611.81;;;24.60;39.90
39265;BME280;42646;51.910;7.724;2022-09-03T11:35:27;100617.25;;;24.60;39.82
39265;BME280;42646;51.910;7.724;2022-09-03T11:37:58;100620.81;;;24.61;39.69
39265;BME280;42646;51.910;7.724;2022-09-03T11:40:32;100604.59;;;24.54;39.83
39265;BME280;42646;51.910;7.724;2022-09-03T11:43:07;100613.13;;;24.58;40.22
39265;BME280;42646;51.910;7.724;2022-09-03T11:45:38;100605.34;;;24.61;40.50
39265;BME280;42646;51.910;7.724;2022-09-03T11:48:17;100608.06;;;24.61;40.32
39265;BME280;42646;51.910;7.724;2022-09-03T11:50:52;100599.41;;;24.64;40.33
39265;BME280;42646;51.910;7.724;2022-09-03T11:53:24;100600.97;;;24.72;39.45
39265;BME280;42646;51.910;7.724;2022-09-03T11:55:54;100605.59;;;24.71;39.72
39265;BME280;42646;51.910;7.724;2022-09-03T11:58:28;100586.91;;;24.75;39.94
39265;BME280;42646;51.910;7.724;2022-09-03T12:01:00;100598.38;;;24.77;40.30
39265;BME280;42646;51.910;7.724;2022-09-03T12:03:37;100591.56;;;24.86;39.78
39265;BME280;42646;51.910;7.724;2022-09-03T12:06:34;100590.00;;;24.90;39.10
39265;BME280;42646;51.910;7.724;2022-09-03T12:09:27;100597.34;;;24.90;39.61
39265;BME280;42646;51.910;7.724;2022-09-03T12:12:09;100593.56;;;24.91;39.18
39265;BME280;42646;51.910;7.724;2022-09-03T12:14:46;100598.09;;;24.97;39.38
39265;BME280;42646;51.910;7.724;2022-09-03T12:17:26;100586.59;;;24.95;40.13
39265;BME280;42646;51.910;7.724;2022-09-03T12:19:57;100590.63;;;25.04;40.06
39265;BME280;42646;51.910;7.724;2022-09-03T12:22:27;100582.84;;;25.08;39.99
39265;BME280;42646;51.910;7.724;2022-09-03T12:25:06;100588.41;;;25.24;39.14
39265;BME280;42646;51.910;7.724;2022-09-03T12:27:45;100580.47;;;25.23;38.68
39265;BME280;42646;51.910;7.724;2022-09-03T12:30:17;100581.31;;;25.23;38.55
39265;BME280;42646;51.910;7.724;2022-09-03T12:32:46;100579.66;;;25.22;38.25
39265;BME280;42646;51.910;7.724;2022-09-03T12:35:18;100586.75;;;25.23;38.65
39265;BME280;42646;51.910;7.724;2022-09-03T12:38:06;100582.97;;;25.24;38.33
39265;BME280;42646;51.910;7.724;2022-09-03T12:40:41;100580.72;;;25.21;38.55
39265;BME280;42646;51.910;7.724;2022-09-03T12:43:29;100562.63;;;25.27;38.81
39265;BME280;42646;51.910;7.724;2022-09-03T12:46:14;100571.81;;;25.38;38.56
39265;BME280;42646;51.910;7.724;2022-09-03T12:48:51;100570.28;;;25.42;39.50
39265;BME280;42646;51.910;7.724;2022-09-03T12:51:40;100576.66;;;25.59;38.60
39265;BME280;42646;51.910;7.724;2022-09-03T12:54:21;100577.97;;;25.68;38.62
39265;BME280;42646;51.910;7.724;2022-09-03T12:56:53;100568.72;;;25.69;38.34
39265;BME280;42646;51.910;7.724;2022-09-03T12:59:23;100567.19;;;25.73;38.57
39265;BME280;42646;51.910;7.724;2022-09-03T13:01:57;100555.34;;;25.79;38.31
39265;BME280;42646;51.910;7.724;2022-09-03T13:04:28;100566.69;;;25.88;38.26
39265;BME280;42646;51.910;7.724;2022-09-03T13:07:01;100556.47;;;25.95;38.23
39265;BME280;42646;51.910;7.724;2022-09-03T13:09:32;100560.81;;;26.08;37.46
39265;BME280;42646;51.910;7.724;2022-09-03T13:12:02;100551.91;;;26.13;37.46
39265;BME280;42646;51.910;7.724;2022-09-03T13:14:41;100548.44;;;26.17;37.63
39265;BME280;42646;51.910;7.724;2022-09-03T13:17:19;100553.19;;;26.22;37.14
39265;BME280;42646;51.910;7.724;2022-09-03T13:20:01;100549.47;;;26.28;37.36
39265;BME280;42646;51.910;7.724;2022-09-03T13:22:35;100547.66;;;26.33;37.63